createdAt,value
2022-11-24T00:00:39.416Z,100172.50
2022-11-24T00:01:29.116Z,100168.06
2022-11-24T00:02:15.687Z,100178.31
2022-11-24T00:03:04.711Z,100168.75
2022-11-24T00:03:59.998Z,100178.97
2022-11-24T00:04:46.439Z,100179.78
2022-11-24T00:05:38.324Z,100177.28
2022-11-24T00:06:26.384Z,100175.53
2022-11-24T00:07:12.871Z,100177.22
2022-11-24T00:07:59.480Z,100175.41
2022-11-24T00:08:46.781Z,100172.72
2022-11-24T00:09:33.205Z,100175.09
2022-11-24T00:10:19.642Z,100178.56
2022-11-24T00:11:09.108Z,100176.75
2022-11-24T00:11:55.591Z,100174.97
2022-11-24T00:12:42.235Z,100174.16
2022-11-24T00:13:28.775Z,100173.34
2022-11-24T00:14:15.233Z,100176.03
2022-11-24T00:15:01.905Z,100177.75
2022-11-24T00:15:48.346Z,100176.13
2022-11-24T00:16:37.499Z,100178.81
2022-11-24T00:17:24.234Z,100182.31
2022-11-24T00:18:10.685Z,100177.09
2022-11-24T00:19:00.137Z,100180.00
2022-11-24T00:19:46.736Z,100180.09
2022-11-24T00:20:34.749Z,100173.44
2022-11-24T00:21:23.214Z,100177.03
2022-11-24T00:22:09.838Z,100179.75
2022-11-24T00:22:56.478Z,100173.09
2022-11-24T00:23:43.616Z,100177.41
2022-11-24T00:24:30.204Z,100176.59
2022-11-24T00:25:17.089Z,100175.81
2022-11-24T00:26:07.947Z,100181.88
2022-11-24T00:26:54.706Z,100177.47
2022-11-24T00:27:41.228Z,100173.22
2022-11-24T00:28:27.779Z,100177.47
2022-11-24T00:29:14.353Z,100173.28
2022-11-24T00:30:01.001Z,100174.97
2022-11-24T00:30:47.823Z,100178.38
2022-11-24T00:31:38.111Z,100168.94
2022-11-24T00:32:24.914Z,100180.97
2022-11-24T00:33:11.834Z,100175.72
2022-11-24T00:34:00.993Z,100179.13
2022-11-24T00:34:47.624Z,100180.81
2022-11-24T00:35:34.551Z,100185.91
2022-11-24T00:36:23.842Z,100185.91
2022-11-24T00:37:10.303Z,100182.44
2022-11-24T00:37:56.760Z,100182.34
2022-11-24T00:38:46.248Z,100181.34
2022-11-24T00:39:32.768Z,100172.63
2022-11-24T00:40:19.349Z,100175.16
2022-11-24T00:41:06.366Z,100181.94
2022-11-24T00:41:52.835Z,100180.19
2022-11-24T00:42:40.751Z,100182.63
2022-11-24T00:43:27.346Z,100183.47
2022-11-24T00:44:13.893Z,100173.00
2022-11-24T00:45:02.110Z,100179.88
2022-11-24T00:45:53.718Z,100178.84
2022-11-24T00:46:40.570Z,100178.00
2022-11-24T00:47:28.713Z,100178.81
2022-11-24T00:48:16.842Z,100174.47
2022-11-24T00:49:03.629Z,100177.91
2022-11-24T00:49:51.323Z,100178.69
2022-11-24T00:50:37.799Z,100178.63
2022-11-24T00:51:30.560Z,100173.44
2022-11-24T00:52:17.072Z,100175.06
2022-11-24T00:53:03.543Z,100177.63
2022-11-24T00:53:50.582Z,100179.38
2022-11-24T00:54:37.041Z,100187.84
2022-11-24T00:55:23.477Z,100182.69
2022-11-24T00:56:11.498Z,100187.09
2022-11-24T00:56:57.959Z,100184.53
2022-11-24T00:57:44.555Z,100185.34
2022-11-24T00:58:32.322Z,100192.19
2022-11-24T00:59:18.768Z,100186.16
2022-11-24T01:00:06.200Z,100188.66
2022-11-24T01:00:53.206Z,100188.66
2022-11-24T01:01:39.962Z,100187.03
2022-11-24T01:02:26.936Z,100194.72
2022-11-24T01:03:14.770Z,100196.38
2022-11-24T01:04:02.188Z,100192.94
2022-11-24T01:04:48.864Z,100204.09
2022-11-24T01:05:38.794Z,100199.78
2022-11-24T01:06:26.383Z,100198.97
2022-11-24T01:07:12.910Z,100195.44
2022-11-24T01:07:59.369Z,100203.16
2022-11-24T01:08:46.445Z,100197.16
2022-11-24T01:09:33.002Z,100200.56
2022-11-24T01:10:19.667Z,100205.69
2022-11-24T01:11:08.686Z,100203.94
2022-11-24T01:12:01.408Z,100203.13
2022-11-24T01:12:47.943Z,100207.56
2022-11-24T01:13:34.748Z,100211.00
2022-11-24T01:14:22.960Z,100212.66
2022-11-24T01:15:09.454Z,100206.63
2022-11-24T01:15:56.239Z,100216.03
2022-11-24T01:16:42.885Z,100218.59
2022-11-24T01:17:29.393Z,100215.09
2022-11-24T01:18:20.301Z,100217.59
2022-11-24T01:19:06.813Z,100208.13
2022-11-24T01:19:53.266Z,100208.06
2022-11-24T01:20:39.836Z,100220.13
2022-11-24T01:21:26.810Z,100220.97
2022-11-24T01:22:13.793Z,100219.31
2022-11-24T01:23:00.475Z,100216.72
2022-11-24T01:23:47.060Z,100221.06
2022-11-24T01:24:33.957Z,100223.56
2022-11-24T01:25:20.570Z,100221.97
2022-11-24T01:26:10.220Z,100224.53
2022-11-24T01:26:56.877Z,100217.59
2022-11-24T01:27:43.547Z,100227.97
2022-11-24T01:28:30.099Z,100213.47
2022-11-24T01:29:17.013Z,100231.59
2022-11-24T01:30:05.427Z,100221.38
2022-11-24T01:31:03.700Z,100229.34
2022-11-24T01:31:50.428Z,100225.19
2022-11-24T01:32:37.295Z,100229.63
2022-11-24T01:33:23.989Z,100230.66
2022-11-24T01:34:10.739Z,100230.03
2022-11-24T01:34:57.301Z,100230.16
2022-11-24T01:35:43.976Z,100220.84
2022-11-24T01:36:30.461Z,100221.88
2022-11-24T01:37:17.240Z,100229.00
2022-11-24T01:38:03.953Z,100224.03
2022-11-24T01:38:50.959Z,100218.19
2022-11-24T01:39:37.681Z,100222.56
2022-11-24T01:40:24.241Z,100221.94
2022-11-24T01:41:14.512Z,100222.84
2022-11-24T01:42:01.772Z,100229.88
2022-11-24T01:42:51.824Z,100227.38
2022-11-24T01:43:39.192Z,100228.31
2022-11-24T01:44:29.315Z,100224.97
2022-11-24T01:45:42.440Z,100226.81
2022-11-24T01:46:38.795Z,100230.28
2022-11-24T01:47:38.640Z,100233.75
2022-11-24T01:48:36.578Z,100230.34
2022-11-24T01:49:32.711Z,100231.22
2022-11-24T01:50:19.252Z,100224.44
2022-11-24T01:51:15.005Z,100234.75
2022-11-24T01:52:13.624Z,100226.91
2022-11-24T01:53:00.311Z,100230.34
2022-11-24T01:54:00.909Z,100234.63
2022-11-24T01:54:54.658Z,100233.75
2022-11-24T01:55:41.770Z,100226.09
2022-11-24T01:56:30.251Z,100230.44
2022-11-24T01:57:24.688Z,100238.25
2022-11-24T01:58:18.797Z,100234.84
2022-11-24T01:59:10.523Z,100240.88
2022-11-24T02:00:02.384Z,100241.81
2022-11-24T02:01:00.513Z,100241.00
2022-11-24T02:01:51.284Z,100238.47
2022-11-24T02:02:39.329Z,100240.34
2022-11-24T02:03:32.537Z,100236.94
2022-11-24T02:04:26.961Z,100241.41
2022-11-24T02:05:25.125Z,100240.66
2022-11-24T02:06:16.348Z,100237.41
2022-11-24T02:07:06.729Z,100235.00
2022-11-24T02:07:56.882Z,100236.03
2022-11-24T02:08:49.296Z,100235.44
2022-11-24T02:09:54.832Z,100246.66
2022-11-24T02:10:42.670Z,100247.63
2022-11-24T02:11:35.815Z,100248.53
2022-11-24T02:12:25.129Z,100247.84
2022-11-24T02:13:14.246Z,100243.75
2022-11-24T02:14:01.109Z,100242.13
2022-11-24T02:14:48.024Z,100245.72
2022-11-24T02:15:35.695Z,100243.25
2022-11-24T02:16:22.774Z,100246.13
2022-11-24T02:17:09.441Z,100246.34
2022-11-24T02:17:55.927Z,100245.47
2022-11-24T02:18:43.916Z,100248.91
2022-11-24T02:19:33.398Z,100248.16
2022-11-24T02:20:20.523Z,100246.66
2022-11-24T02:21:07.990Z,100247.75
2022-11-24T02:21:54.514Z,100249.44
2022-11-24T02:23:02.640Z,100235.66
2022-11-24T02:24:03.757Z,100245.09
2022-11-24T02:24:58.842Z,100245.31
2022-11-24T02:26:04.552Z,100244.53
2022-11-24T02:26:52.542Z,100248.88
2022-11-24T02:27:39.301Z,100240.28
2022-11-24T02:28:30.737Z,100247.28
2022-11-24T02:29:17.642Z,100251.66
2022-11-24T02:30:04.723Z,100252.50
2022-11-24T02:30:53.494Z,100255.06
2022-11-24T02:31:49.799Z,100258.53
2022-11-24T02:32:41.994Z,100261.22
2022-11-24T02:33:29.387Z,100259.56
2022-11-24T02:34:16.185Z,100260.50
2022-11-24T02:35:05.958Z,100261.38
2022-11-24T02:35:52.879Z,100260.53
2022-11-24T02:36:39.591Z,100263.28
2022-11-24T02:37:26.190Z,100261.88
2022-11-24T02:38:13.904Z,100260.38
2022-11-24T02:39:00.370Z,100262.94
2022-11-24T02:39:46.840Z,100257.88
2022-11-24T02:40:33.454Z,100253.69
2022-11-24T02:41:25.363Z,100264.75
2022-11-24T02:42:13.869Z,100256.94
2022-11-24T02:43:08.111Z,100267.28
2022-11-24T02:43:57.241Z,100254.28
2022-11-24T02:44:51.193Z,100263.75
2022-11-24T02:45:37.882Z,100266.22
2022-11-24T02:46:24.655Z,100266.31
2022-11-24T02:47:12.807Z,100258.78
2022-11-24T02:47:59.464Z,100267.25
2022-11-24T02:48:46.524Z,100261.19
2022-11-24T02:49:33.099Z,100265.50
2022-11-24T02:50:19.761Z,100260.25
2022-11-24T02:51:06.380Z,100266.16
2022-11-24T02:51:53.049Z,100260.91
2022-11-24T02:52:39.605Z,100255.56
2022-11-24T02:53:26.141Z,100256.28
2022-11-24T02:54:12.608Z,100264.63
2022-11-24T02:54:59.037Z,100264.47
2022-11-24T02:55:45.630Z,100265.41
2022-11-24T02:56:32.142Z,100263.50
2022-11-24T02:57:18.797Z,100265.94
2022-11-24T02:58:05.303Z,100265.75
2022-11-24T02:58:51.747Z,100263.06
2022-11-24T02:59:38.267Z,100265.44
2022-11-24T03:00:25.168Z,100267.81
2022-11-24T03:01:11.712Z,100268.56
2022-11-24T03:01:58.543Z,100265.88
2022-11-24T03:02:45.291Z,100265.13
2022-11-24T03:03:32.179Z,100261.78
2022-11-24T03:04:18.759Z,100267.81
2022-11-24T03:05:05.642Z,100263.47
2022-11-24T03:05:52.169Z,100271.28
2022-11-24T03:06:39.365Z,100266.13
2022-11-24T03:07:25.986Z,100265.34
2022-11-24T03:08:13.147Z,100267.09
2022-11-24T03:08:59.694Z,100262.75
2022-11-24T03:09:46.442Z,100266.97
2022-11-24T03:10:33.044Z,100260.06
2022-11-24T03:11:19.535Z,100264.38
2022-11-24T03:12:06.404Z,100268.91
2022-11-24T03:12:52.919Z,100262.84
2022-11-24T03:13:39.413Z,100256.88
2022-11-24T03:14:26.108Z,100261.06
2022-11-24T03:15:12.806Z,100263.53
2022-11-24T03:15:59.479Z,100260.97
2022-11-24T03:16:45.986Z,100260.91
2022-11-24T03:17:32.479Z,100267.91
2022-11-24T03:18:18.989Z,100256.00
2022-11-24T03:19:05.938Z,100262.03
2022-11-24T03:19:52.591Z,100261.22
2022-11-24T03:20:39.087Z,100265.59
2022-11-24T03:21:25.587Z,100266.47
2022-11-24T03:22:15.749Z,100261.22
2022-11-24T03:23:02.508Z,100265.44
2022-11-24T03:23:49.046Z,100266.47
2022-11-24T03:24:35.970Z,100266.47
2022-11-24T03:25:22.802Z,100269.97
2022-11-24T03:26:12.984Z,100271.69
2022-11-24T03:26:59.473Z,100274.28
2022-11-24T03:27:46.969Z,100264.78
2022-11-24T03:28:33.409Z,100266.53
2022-11-24T03:29:20.176Z,100270.81
2022-11-24T03:30:07.482Z,100275.03
2022-11-24T03:30:53.972Z,100269.88
2022-11-24T03:31:40.617Z,100269.88
2022-11-24T03:32:27.337Z,100267.19
2022-11-24T03:33:13.749Z,100275.81
2022-11-24T03:34:00.451Z,100276.69
2022-11-24T03:34:47.244Z,100270.69
2022-11-24T03:35:33.720Z,100269.06
2022-11-24T03:36:20.177Z,100269.06
2022-11-24T03:37:07.668Z,100272.53
2022-11-24T03:37:54.212Z,100269.06
2022-11-24T03:38:40.810Z,100273.38
2022-11-24T03:39:27.602Z,100272.72
2022-11-24T03:40:14.446Z,100274.50
2022-11-24T03:41:00.946Z,100272.78
2022-11-24T03:41:47.478Z,100281.50
2022-11-24T03:42:34.578Z,100283.38
2022-11-24T03:43:21.545Z,100285.91
2022-11-24T03:44:07.996Z,100282.44
2022-11-24T03:44:54.544Z,100281.56
2022-11-24T03:45:48.301Z,100282.53
2022-11-24T03:46:34.902Z,100275.00
2022-11-24T03:47:21.378Z,100282.09
2022-11-24T03:48:07.967Z,100284.59
2022-11-24T03:48:54.491Z,100285.50
2022-11-24T03:49:41.682Z,100276.28
2022-11-24T03:50:29.097Z,100272.13
2022-11-24T03:51:15.661Z,100283.38
2022-11-24T03:52:07.647Z,100285.91
2022-11-24T03:52:54.769Z,100271.06
2022-11-24T03:53:41.396Z,100273.72
2022-11-24T03:54:27.958Z,100277.88
2022-11-24T03:55:14.492Z,100272.72
2022-11-24T03:56:02.281Z,100281.34
2022-11-24T03:56:49.012Z,100274.53
2022-11-24T03:57:35.788Z,100279.69
2022-11-24T03:58:22.841Z,100278.88
2022-11-24T03:59:09.337Z,100280.59
2022-11-24T03:59:55.947Z,100283.13
2022-11-24T04:00:42.463Z,100279.69
2022-11-24T04:01:29.363Z,100292.63
2022-11-24T04:02:16.045Z,100289.97
2022-11-24T04:03:03.057Z,100289.09
2022-11-24T04:03:49.636Z,100290.94
2022-11-24T04:04:36.312Z,100288.38
2022-11-24T04:05:23.055Z,100292.78
2022-11-24T04:06:09.700Z,100292.91
2022-11-24T04:06:56.585Z,100294.00
2022-11-24T04:07:43.378Z,100300.22
2022-11-24T04:08:30.110Z,100301.97
2022-11-24T04:09:16.638Z,100293.47
2022-11-24T04:10:03.389Z,100302.94
2022-11-24T04:10:52.184Z,100299.63
2022-11-24T04:11:57.167Z,100309.06
2022-11-24T04:12:46.255Z,100305.00
2022-11-24T04:13:32.957Z,100307.66
2022-11-24T04:14:19.686Z,100298.16
2022-11-24T04:15:06.865Z,100307.66
2022-11-24T04:15:53.873Z,100310.34
2022-11-24T04:16:41.473Z,100300.88
2022-11-24T04:17:28.807Z,100302.53
2022-11-24T04:18:16.006Z,100301.78
2022-11-24T04:19:03.163Z,100299.19
2022-11-24T04:19:50.201Z,100306.31
2022-11-24T04:20:37.214Z,100303.00
2022-11-24T04:21:24.131Z,100298.75
2022-11-24T04:22:11.224Z,100303.09
2022-11-24T04:22:58.947Z,100305.69
2022-11-24T04:23:45.827Z,100299.59
2022-11-24T04:24:33.123Z,100296.97
2022-11-24T04:25:19.774Z,100307.22
2022-11-24T04:26:06.322Z,100301.06
2022-11-24T04:26:52.870Z,100302.69
2022-11-24T04:27:39.504Z,100308.72
2022-11-24T04:28:26.111Z,100300.97
2022-11-24T04:29:13.070Z,100307.88
2022-11-24T04:29:59.756Z,100313.84
2022-11-24T04:30:46.429Z,100313.88
2022-11-24T04:31:33.180Z,100307.09
2022-11-24T04:32:19.885Z,100308.88
2022-11-24T04:33:06.885Z,100297.59
2022-11-24T04:33:53.416Z,100302.81
2022-11-24T04:34:41.535Z,100308.88
2022-11-24T04:35:28.387Z,100301.94
2022-11-24T04:36:14.896Z,100312.41
2022-11-24T04:37:01.712Z,100303.84
2022-11-24T04:37:48.556Z,100308.16
2022-11-24T04:39:19.845Z,100307.34
2022-11-24T04:39:42.018Z,100308.28
2022-11-24T04:40:28.535Z,100307.50
2022-11-24T04:41:15.343Z,100307.50
2022-11-24T04:42:04.306Z,100310.09
2022-11-24T04:42:53.980Z,100315.28
2022-11-24T04:43:40.968Z,100308.38
2022-11-24T04:44:27.959Z,100310.94
2022-11-24T04:45:14.445Z,100317.03
2022-11-24T04:46:01.788Z,100316.19
2022-11-24T04:46:48.263Z,100318.72
2022-11-24T04:47:34.956Z,100314.44
2022-11-24T04:48:22.231Z,100319.59
2022-11-24T04:49:13.593Z,100309.25
2022-11-24T04:50:00.350Z,100323.13
2022-11-24T04:50:47.474Z,100321.34
2022-11-24T04:51:34.094Z,100327.38
2022-11-24T04:52:22.779Z,100324.81
2022-11-24T04:53:11.159Z,100326.56
2022-11-24T04:53:57.790Z,100324.13
2022-11-24T04:54:44.230Z,100330.22
2022-11-24T04:55:30.791Z,100329.31
2022-11-24T04:56:17.251Z,100330.25
2022-11-24T04:57:04.035Z,100331.16
2022-11-24T04:57:50.729Z,100337.22
2022-11-24T04:58:37.227Z,100336.31
2022-11-24T04:59:23.655Z,100338.97
2022-11-24T05:00:11.066Z,100339.00
2022-11-24T05:00:57.693Z,100333.81
2022-11-24T05:01:46.036Z,100334.66
2022-11-24T05:02:33.773Z,100333.91
2022-11-24T05:03:20.856Z,100337.34
2022-11-24T05:04:07.353Z,100339.06
2022-11-24T05:04:54.004Z,100336.47
2022-11-24T05:05:40.635Z,100339.91
2022-11-24T05:06:27.060Z,100336.47
2022-11-24T05:07:19.288Z,100335.66
2022-11-24T05:08:06.062Z,100340.81
2022-11-24T05:08:53.224Z,100345.16
2022-11-24T05:09:59.970Z,100346.91
2022-11-24T05:10:47.437Z,100339.16
2022-11-24T05:11:34.349Z,100343.44
2022-11-24T05:12:20.803Z,100342.50
2022-11-24T05:13:11.528Z,100348.59
2022-11-24T05:13:58.033Z,100348.66
2022-11-24T05:14:44.444Z,100346.06
2022-11-24T05:15:31.688Z,100347.88
2022-11-24T05:16:18.291Z,100351.28
2022-11-24T05:17:04.728Z,100353.84
2022-11-24T05:17:51.312Z,100356.41
2022-11-24T05:18:38.071Z,100352.09
2022-11-24T05:19:27.317Z,100357.28
2022-11-24T05:20:16.514Z,100358.13
2022-11-24T05:21:03.273Z,100360.69
2022-11-24T05:21:49.763Z,100365.88
2022-11-24T05:22:36.617Z,100361.53
2022-11-24T05:23:23.087Z,100368.44
2022-11-24T05:24:10.874Z,100370.19
2022-11-24T05:24:58.203Z,100359.88
2022-11-24T05:25:47.600Z,100363.34
2022-11-24T05:26:35.483Z,100364.19
2022-11-24T05:27:21.939Z,100371.97
2022-11-24T05:28:09.997Z,100365.13
2022-11-24T05:28:56.605Z,100379.81
2022-11-24T05:29:43.082Z,100370.31
2022-11-24T05:30:30.092Z,100377.22
2022-11-24T05:31:16.829Z,100374.66
2022-11-24T05:32:03.701Z,100375.63
2022-11-24T05:32:50.327Z,100377.38
2022-11-24T05:33:38.170Z,100371.31
2022-11-24T05:34:25.460Z,100380.81
2022-11-24T05:35:12.135Z,100382.50
2022-11-24T05:36:03.862Z,100389.41
2022-11-24T05:36:53.382Z,100381.56
2022-11-24T05:37:39.884Z,100383.34
2022-11-24T05:38:26.964Z,100392.75
2022-11-24T05:39:13.374Z,100390.16
2022-11-24T05:39:59.989Z,100384.22
2022-11-24T05:40:47.508Z,100388.56
2022-11-24T05:41:33.957Z,100393.75
2022-11-24T05:42:44.903Z,100389.44
2022-11-24T05:43:33.791Z,100393.75
2022-11-24T05:44:20.388Z,100379.97
2022-11-24T05:45:13.322Z,100393.78
2022-11-24T05:46:01.281Z,100395.50
2022-11-24T05:46:47.850Z,100386.84
2022-11-24T05:47:34.820Z,100404.13
2022-11-24T05:48:21.508Z,100403.25
2022-11-24T05:49:07.990Z,100400.66
2022-11-24T05:49:54.689Z,100399.84
2022-11-24T05:50:42.143Z,100392.34
2022-11-24T05:51:28.688Z,100402.69
2022-11-24T05:52:16.360Z,100400.03
2022-11-24T05:53:11.360Z,100402.56
2022-11-24T05:53:57.797Z,100397.34
2022-11-24T05:54:44.199Z,100403.34
2022-11-24T05:55:31.604Z,100397.34
2022-11-24T05:56:18.268Z,100400.75
2022-11-24T05:57:04.910Z,100406.84
2022-11-24T05:57:58.555Z,100408.53
2022-11-24T05:58:45.035Z,100401.63
2022-11-24T05:59:31.687Z,100398.09
2022-11-24T06:00:20.091Z,100405.19
2022-11-24T06:01:21.182Z,100403.50
2022-11-24T06:02:07.893Z,100404.44
2022-11-24T06:02:54.656Z,100403.63
2022-11-24T06:03:41.264Z,100407.19
2022-11-24T06:04:28.207Z,100407.19
2022-11-24T06:05:14.668Z,100413.59
2022-11-24T06:06:01.409Z,100413.06
2022-11-24T06:06:51.834Z,100405.63
2022-11-24T06:07:38.384Z,100414.50
2022-11-24T06:08:29.635Z,100417.94
2022-11-24T06:09:17.528Z,100411.72
2022-11-24T06:10:04.832Z,100424.63
2022-11-24T06:10:51.591Z,100421.13
2022-11-24T06:11:38.069Z,100425.63
2022-11-24T06:12:24.541Z,100421.44
2022-11-24T06:13:11.405Z,100424.94
2022-11-24T06:13:58.098Z,100429.31
2022-11-24T06:14:45.287Z,100418.94
2022-11-24T06:15:31.933Z,100429.22
2022-11-24T06:16:18.474Z,100427.53
2022-11-24T06:17:06.629Z,100431.81
2022-11-24T06:17:55.903Z,100433.50
2022-11-24T06:18:42.488Z,100432.66
2022-11-24T06:19:29.126Z,100434.38
2022-11-24T06:20:15.751Z,100425.63
2022-11-24T06:21:10.892Z,100429.22
2022-11-24T06:21:58.018Z,100422.34
2022-11-24T06:22:44.449Z,100434.38
2022-11-24T06:23:31.110Z,100423.22
2022-11-24T06:24:17.561Z,100427.56
2022-11-24T06:25:04.342Z,100425.91
2022-11-24T06:25:51.709Z,100424.22
2022-11-24T06:26:38.388Z,100431.91
2022-11-24T06:27:25.268Z,100433.50
2022-11-24T06:28:12.291Z,100432.56
2022-11-24T06:28:58.755Z,100436.88
2022-11-24T06:29:45.341Z,100441.13
2022-11-24T06:30:31.924Z,100431.66
2022-11-24T06:31:27.372Z,100437.72
2022-11-24T06:32:14.019Z,100436.66
2022-11-24T06:33:00.906Z,100439.13
2022-11-24T06:33:47.622Z,100434.69
2022-11-24T06:34:34.392Z,100440.72
2022-11-24T06:35:20.973Z,100438.97
2022-11-24T06:36:12.025Z,100447.59
2022-11-24T06:36:58.489Z,100443.31
2022-11-24T06:37:45.821Z,100446.75
2022-11-24T06:38:34.739Z,100453.69
2022-11-24T06:39:23.426Z,100454.50
2022-11-24T06:40:10.340Z,100455.59
2022-11-24T06:41:06.889Z,100454.03
2022-11-24T06:41:54.496Z,100458.28
2022-11-24T06:42:41.110Z,100465.97
2022-11-24T06:43:29.232Z,100464.31
2022-11-24T06:44:15.742Z,100464.38
2022-11-24T06:45:08.600Z,100468.66
2022-11-24T06:45:56.899Z,100471.97
2022-11-24T06:46:43.685Z,100479.81
2022-11-24T06:47:30.120Z,100473.72
2022-11-24T06:48:16.664Z,100475.41
2022-11-24T06:49:03.478Z,100470.22
2022-11-24T06:49:49.956Z,100464.22
2022-11-24T06:50:37.435Z,100478.06
2022-11-24T06:51:23.876Z,100474.53
2022-11-24T06:52:10.291Z,100476.28
2022-11-24T06:52:56.898Z,100465.97
2022-11-24T06:53:43.313Z,100478.91
2022-11-24T06:54:29.780Z,100475.47
2022-11-24T06:55:16.427Z,100464.44
2022-11-24T06:56:06.695Z,100468.63
2022-11-24T06:56:59.028Z,100467.72
2022-11-24T06:57:45.426Z,100465.09
2022-11-24T06:58:31.840Z,100469.31
2022-11-24T06:59:20.371Z,100468.47
2022-11-24T07:00:08.455Z,100466.72
2022-11-24T07:00:55.325Z,100464.03
2022-11-24T07:01:41.777Z,100465.66
2022-11-24T07:02:28.259Z,100472.69
2022-11-24T07:03:16.979Z,100472.59
2022-11-24T07:04:04.418Z,100472.50
2022-11-24T07:04:50.894Z,100474.19
2022-11-24T07:05:37.291Z,100466.41
2022-11-24T07:06:25.905Z,100478.41
2022-11-24T07:07:13.586Z,100479.28
2022-11-24T07:08:00.509Z,100480.28
2022-11-24T07:08:47.830Z,100476.13
2022-11-24T07:09:34.280Z,100483.06
2022-11-24T07:10:20.839Z,100485.63
2022-11-24T07:11:09.983Z,100482.03
2022-11-24T07:11:57.156Z,100485.34
2022-11-24T07:12:43.790Z,100483.59
2022-11-24T07:13:30.781Z,100489.53
2022-11-24T07:14:17.454Z,100498.06
2022-11-24T07:15:04.273Z,100491.03
2022-11-24T07:15:50.976Z,100498.78
2022-11-24T07:16:38.909Z,100494.41
2022-11-24T07:17:25.553Z,100500.34
2022-11-24T07:18:12.158Z,100507.16
2022-11-24T07:18:59.877Z,100506.16
2022-11-24T07:19:46.277Z,100502.56
2022-11-24T07:20:32.711Z,100506.06
2022-11-24T07:21:21.554Z,100510.38
2022-11-24T07:22:08.047Z,100513.94
2022-11-24T07:22:56.435Z,100518.38
2022-11-24T07:23:43.356Z,100511.44
2022-11-24T07:24:29.772Z,100510.50
2022-11-24T07:25:17.331Z,100519.09
2022-11-24T07:26:08.257Z,100524.56
2022-11-24T07:26:54.807Z,100522.69
2022-11-24T07:27:41.423Z,100524.19
2022-11-24T07:28:28.010Z,100524.00
2022-11-24T07:29:14.913Z,100535.09
2022-11-24T07:30:01.973Z,100532.41
2022-11-24T07:30:51.035Z,100533.91
2022-11-24T07:31:38.133Z,100539.84
2022-11-24T07:32:24.773Z,100547.59
2022-11-24T07:33:11.475Z,100545.66
2022-11-24T07:33:58.029Z,100548.94
2022-11-24T07:34:44.465Z,100544.38
2022-11-24T07:35:31.136Z,100553.72
2022-11-24T07:36:18.670Z,100552.69
2022-11-24T07:37:05.274Z,100550.94
2022-11-24T07:37:55.105Z,100551.81
2022-11-24T07:38:41.700Z,100555.28
2022-11-24T07:39:28.596Z,100554.41
2022-11-24T07:40:15.294Z,100557.84
2022-11-24T07:41:09.483Z,100561.44
2022-11-24T07:41:55.983Z,100558.91
2022-11-24T07:42:42.861Z,100562.41
2022-11-24T07:43:32.710Z,100560.81
2022-11-24T07:44:19.480Z,100561.81
2022-11-24T07:45:06.461Z,100564.38
2022-11-24T07:45:53.321Z,100562.16
2022-11-24T07:46:39.896Z,100563.06
2022-11-24T07:47:26.524Z,100567.53
2022-11-24T07:48:13.004Z,100565.81
2022-11-24T07:48:59.458Z,100567.63
2022-11-24T07:49:45.891Z,100568.59
2022-11-24T07:50:32.374Z,100572.19
2022-11-24T07:51:18.898Z,100567.94
2022-11-24T07:52:05.456Z,100570.63
2022-11-24T07:52:51.931Z,100578.47
2022-11-24T07:53:38.456Z,100581.91
2022-11-24T07:54:24.871Z,100578.47
2022-11-24T07:55:11.655Z,100573.28
2022-11-24T07:56:00.582Z,100582.72
2022-11-24T07:56:49.842Z,100581.03
2022-11-24T07:57:37.008Z,100583.66
2022-11-24T07:58:25.541Z,100582.84
2022-11-24T07:59:15.501Z,100585.38
2022-11-24T08:00:03.627Z,100589.66
2022-11-24T08:00:54.007Z,100590.44
2022-11-24T08:01:41.030Z,100598.25
2022-11-24T08:02:27.813Z,100594.84
2022-11-24T08:03:14.668Z,100593.06
2022-11-24T08:04:01.994Z,100598.25
2022-11-24T08:04:48.632Z,100595.75
2022-11-24T08:05:38.400Z,100598.34
2022-11-24T08:06:38.625Z,100605.34
2022-11-24T08:07:27.477Z,100601.16
2022-11-24T08:08:13.920Z,100604.78
2022-11-24T08:09:00.486Z,100608.47
2022-11-24T08:09:47.004Z,100606.81
2022-11-24T08:10:33.640Z,100609.50
2022-11-24T08:11:20.215Z,100614.66
2022-11-24T08:12:07.168Z,100617.34
2022-11-24T08:12:53.856Z,100612.28
2022-11-24T08:13:41.446Z,100615.88
2022-11-24T08:14:27.850Z,100623.84
2022-11-24T08:15:14.527Z,100620.97
2022-11-24T08:16:07.986Z,100616.66
2022-11-24T08:16:54.506Z,100616.72
2022-11-24T08:17:40.938Z,100622.75
2022-11-24T08:18:28.052Z,100628.88
2022-11-24T08:19:14.820Z,100628.13
2022-11-24T08:20:01.348Z,100630.78
2022-11-24T08:20:48.032Z,100627.31
2022-11-24T08:21:34.531Z,100633.31
2022-11-24T08:22:21.494Z,100629.88
2022-11-24T08:23:09.018Z,100629.94
2022-11-24T08:23:56.643Z,100631.78
2022-11-24T08:24:47.042Z,100630.94
2022-11-24T08:25:33.577Z,100635.38
2022-11-24T08:26:20.111Z,100634.84
2022-11-24T08:27:06.540Z,100632.38
2022-11-24T08:27:53.066Z,100633.28
2022-11-24T08:28:39.808Z,100634.19
2022-11-24T08:29:29.587Z,100637.69
2022-11-24T08:30:16.462Z,100638.53
2022-11-24T08:31:09.158Z,100637.72
2022-11-24T08:31:57.288Z,100640.31
2022-11-24T08:32:43.752Z,100639.47
2022-11-24T08:33:30.700Z,100637.78
2022-11-24T08:34:17.173Z,100638.63
2022-11-24T08:35:18.402Z,100635.22
2022-11-24T08:36:08.292Z,100642.16
2022-11-24T08:36:54.938Z,100641.28
2022-11-24T08:37:41.591Z,100649.19
2022-11-24T08:38:28.035Z,100644.84
2022-11-24T08:39:14.487Z,100636.28
2022-11-24T08:40:00.897Z,100654.56
2022-11-24T08:40:47.356Z,100633.88
2022-11-24T08:41:34.151Z,100642.59
2022-11-24T08:42:20.804Z,100648.69
2022-11-24T08:43:07.536Z,100650.38
2022-11-24T08:43:55.436Z,100646.16
2022-11-24T08:44:42.974Z,100651.38
2022-11-24T08:45:30.747Z,100655.69
2022-11-24T08:46:18.988Z,100656.63
2022-11-24T08:47:05.723Z,100654.97
2022-11-24T08:47:57.197Z,100654.13
2022-11-24T08:48:54.808Z,100651.53
2022-11-24T08:49:41.346Z,100652.47
2022-11-24T08:50:27.922Z,100657.63
2022-11-24T08:51:17.129Z,100656.72
2022-11-24T08:52:05.825Z,100662.75
2022-11-24T08:52:53.605Z,100660.16
2022-11-24T08:53:41.768Z,100668.00
2022-11-24T08:54:28.536Z,100661.19
2022-11-24T08:55:15.164Z,100669.03
2022-11-24T08:56:02.905Z,100672.53
2022-11-24T08:56:49.674Z,100676.81
2022-11-24T08:57:36.230Z,100670.81
2022-11-24T08:58:22.726Z,100674.31
2022-11-24T08:59:13.957Z,100670.13
2022-11-24T09:00:00.655Z,100674.56
2022-11-24T09:00:47.099Z,100678.91
2022-11-24T09:01:34.278Z,100675.50
2022-11-24T09:02:20.896Z,100679.00
2022-11-24T09:03:07.317Z,100678.09
2022-11-24T09:03:54.115Z,100683.41
2022-11-24T09:04:40.755Z,100682.44
2022-11-24T09:05:53.246Z,100683.31
2022-11-24T09:06:34.095Z,100680.81
2022-11-24T09:07:20.723Z,100680.00
2022-11-24T09:08:07.371Z,100680.09